Lr2 Pioneer — VREE7 — position and weather

sailwx.info

Track history (hours):
 
Tides and Currents Weather Stations Pressure Air Temp Water Temp Dewpoint Dewpoint Depression Visibility Wind Speed Wind Dir Waves Ship Positions

Lr2 Pioneer

Last reported at 2017-Apr-09 01:18 UTC. Time now 2017-Apr-24 11:33 UTC.
Position S 38°43' E 148°13'.
Warning: this ship's position is 15 days out of date.

Length 244 m; draft 8.2 m.

Type: Tanker. MMSI: 477114400.

Date/timePositionNaut miles runAvg speedWind from/ knotsBaromVisibWave heightAir tempDewpointWater temp
2017-Apr-09 01:18S 38°43' E 148°13'412.4
2017-Apr-09 00:57S 38°41' E 148°18'612.9
2017-Apr-09 00:30S 38°38' E 148°24'712.8
2017-Apr-08 23:59S 38°35' E 148°32'612.7
2017-Apr-08 23:30S 38°33' E 148°39'612.6
2017-Apr-08 22:59S 38°30' E 148°46'612.6
2017-Apr-08 22:30S 38°27' E 148°54'612.3
2017-Apr-08 22:00S 38°24' E 149°00'612.4
2017-Apr-08 21:30S 38°20' E 149°06'712.8
2017-Apr-08 20:59S 38°16' E 149°13'713.3
2017-Apr-08 20:30S 38°13' E 149°20'613.0
2017-Apr-08 20:00S 38°09' E 149°27'712.6
2017-Apr-08 19:28S 38°05' E 149°34'612.3
2017-Apr-08 19:00S 38°01' E 149°39'713.1
2017-Apr-08 18:30S 37°57' E 149°46'713.7
2017-Apr-08 18:00S 37°52' E 149°52'  
Track history (hours):
 
Tides and Currents Weather Stations Pressure Air Temp Water Temp Dewpoint Dewpoint Depression Visibility Wind Speed Wind Dir Waves Ship Positions

Lr2 Pioneer

Last reported at 2017-Apr-09 01:18 UTC. Time now 2017-Apr-24 11:33 UTC.
Position S 38°43' E 148°13'.
Warning: this ship's position is 15 days out of date.

Length 244 m; draft 8.2 m.

Type: Tanker. MMSI: 477114400.

Date/timePositionNaut miles runAvg speedWind from/ knotsBaromVisibWave heightAir tempDewpointWater temp
2017-Apr-09 01:18S 38°43' E 148°13'412.4
2017-Apr-09 00:57S 38°41' E 148°18'612.9
2017-Apr-09 00:30S 38°38' E 148°24'712.8
2017-Apr-08 23:59S 38°35' E 148°32'612.7
2017-Apr-08 23:30S 38°33' E 148°39'612.6
2017-Apr-08 22:59S 38°30' E 148°46'612.6
2017-Apr-08 22:30S 38°27' E 148°54'612.3
2017-Apr-08 22:00S 38°24' E 149°00'612.4
2017-Apr-08 21:30S 38°20' E 149°06'712.8
2017-Apr-08 20:59S 38°16' E 149°13'713.3
2017-Apr-08 20:30S 38°13' E 149°20'613.0
2017-Apr-08 20:00S 38°09' E 149°27'712.6
2017-Apr-08 19:28S 38°05' E 149°34'612.3
2017-Apr-08 19:00S 38°01' E 149°39'713.1
2017-Apr-08 18:30S 37°57' E 149°46'713.7
2017-Apr-08 18:00S 37°52' E 149°52'  

Dump ship's entire track history